KBKT/BKT METAR and TAF weather

Enter ICAO airport designator
Station Type Date Time Source
KBKT METAR 2019/02/23 17:15 UTC NOAA

KBKT 231715Z AUTO 06006KT 4SM OVC007 05/05 A3032 RMK AO1 P0001 T00460046


Station Type Date Time Source
KBKT Decoded METAR 2019/02/23 17:15 UTC NOAA

Ft. Pickett / Blackstone, VA, United States (KBKT) 37-05N 077-57W
Feb 23, 2019 - 12:15 PM EST / 2019.02.23 1715 UTC
Wind: from the ENE (060 degrees) at 7 MPH (6 KT):0
Visibility: 4 mile(s):0
Sky conditions: overcast
Precipitation last hour: 0.01 inches
Temperature: 40.3 F (4.6 C)
Dew Point: 40.3 F (4.6 C)
Relative Humidity: 100%
Pressure (altimeter): 30.32 in. Hg (1026 hPa)
ob: KBKT 231715Z AUTO 06006KT 4SM OVC007 05/05 A3032 RMK AO1 P0001 T00460046
cycle: 17

Station Type Date Time Source
KBKT TAF UTC NOAA

Error!


Example: see airport list